Time;durP1;ratioP1;P1;durP2;ratioP2;P2;SDS_P1;SDS_P2;PMS_P1;PMS_P2;Temp;Humidity;BMP_temperature;BMP_pressure;BME280_temperature;BME280_humidity;BME280_pressure;Samples;Min_cycle;Max_cycle;Signal;HPM_P1;HPM_P2
2022/10/04 00:02:14;;;;;;;14.25;2.88;;;;;;;12.52;100.00;101381.50;5019644;28;20434;-89
2022/10/04 00:05:03;;;;;;;11.10;2.67;;;;;;;12.63;100.00;101384.38;5053460;28;20052;-90
2022/10/04 00:07:57;;;;;;;15.20;2.13;;;;;;;12.71;100.00;101385.75;5004203;28;20135;-91
2022/10/04 00:10:33;;;;;;;13.68;2.30;;;;;;;12.64;100.00;101383.44;5011303;28;20065;-91
2022/10/04 00:13:26;;;;;;;9.32;2.65;;;;;;;12.59;100.00;101382.84;5013653;28;20073;-92
2022/10/04 00:16:19;;;;;;;10.48;1.88;;;;;;;12.58;100.00;101382.94;5014220;28;20041;-90
2022/10/04 00:19:28;;;;;;;13.63;3.22;;;;;;;12.54;100.00;101384.91;5017731;28;20045;-90
2022/10/04 00:22:09;;;;;;;15.77;2.17;;;;;;;12.59;100.00;101387.28;5011803;28;20095;-90
2022/10/04 00:25:06;;;;;;;21.13;2.35;;;;;;;12.49;100.00;101386.09;5041868;28;20049;-91
2022/10/04 00:27:44;;;;;;;11.73;2.65;;;;;;;12.46;100.00;101389.75;5041352;28;20041;-90
2022/10/04 00:30:26;;;;;;;14.77;2.80;;;;;;;12.48;100.00;101390.53;5022231;28;20064;-91
2022/10/04 00:33:03;;;;;;;17.65;3.67;;;;;;;12.44;100.00;101381.06;5011879;28;20047;-91
2022/10/04 00:35:34;;;;;;;17.35;4.47;;;;;;;12.40;100.00;101379.53;5027370;28;20470;-91
2022/10/04 00:38:14;;;;;;;12.73;2.38;;;;;;;12.37;100.00;101385.81;5045875;28;20045;-90
2022/10/04 00:40:59;;;;;;;14.02;2.58;;;;;;;12.41;100.00;101391.78;5028281;28;20053;-91
2022/10/04 00:43:42;;;;;;;15.63;2.92;;;;;;;12.42;100.00;101385.56;5033117;28;20048;-91
2022/10/04 00:46:21;;;;;;;10.88;2.63;;;;;;;12.47;100.00;101387.94;5007908;28;20095;-90
2022/10/04 00:49:07;;;;;;;10.95;2.17;;;;;;;12.45;100.00;101382.75;5035993;28;20049;-90
2022/10/04 00:51:46;;;;;;;14.00;2.58;;;;;;;12.39;100.00;101381.31;5038882;28;20037;-90
2022/10/04 00:54:22;;;;;;;15.18;2.67;;;;;;;12.46;100.00;101381.81;5023700;28;20049;-92
2022/10/04 00:56:57;;;;;;;12.90;3.03;;;;;;;12.46;100.00;101387.09;5044084;28;20109;-91
2022/10/04 00:59:34;;;;;;;13.20;2.70;;;;;;;12.40;100.00;101379.53;5040929;28;20044;-90
2022/10/04 01:02:25;;;;;;;18.20;3.22;;;;;;;12.39;100.00;101383.97;5026653;28;20125;-90
2022/10/04 01:05:08;;;;;;;14.98;2.85;;;;;;;12.41;100.00;101376.78;5006549;28;20117;-89
2022/10/04 01:07:38;;;;;;;16.83;3.00;;;;;;;12.45;100.00;101374.00;5003705;28;20072;-91
2022/10/04 01:10:24;;;;;;;15.38;2.22;;;;;;;12.41;100.00;101378.59;5035579;28;20048;-90
2022/10/04 01:13:09;;;;;;;12.90;2.63;;;;;;;12.40;100.00;101371.59;5002712;28;20038;-91
2022/10/04 01:15:53;;;;;;;15.15;3.33;;;;;;;12.39;100.00;101372.53;5021987;28;20045;-92
2022/10/04 01:18:21;;;;;;;15.18;2.20;;;;;;;12.40;100.00;101374.25;5013166;28;20049;-91
2022/10/04 01:21:28;;;;;;;11.77;2.47;;;;;;;12.35;100.00;101368.38;5020351;28;20061;-91
2022/10/04 01:24:21;;;;;;;10.50;2.25;;;;;;;12.30;100.00;101370.41;5025413;28;20053;-91
2022/10/04 01:27:34;;;;;;;12.77;2.50;;;;;;;12.32;100.00;101374.66;5042052;28;20042;-90
2022/10/04 01:30:12;;;;;;;15.38;3.33;;;;;;;12.22;100.00;101368.16;5028070;28;20052;-92
2022/10/04 01:32:41;;;;;;;13.50;2.10;;;;;;;12.22;100.00;101368.16;5016658;28;20026;-91
2022/10/04 01:35:18;;;;;;;12.35;2.55;;;;;;;12.25;100.00;101368.00;5022138;28;20101;-90
2022/10/04 01:37:54;;;;;;;17.40;2.28;;;;;;;12.21;100.00;101365.63;5051176;28;20038;-90
2022/10/04 01:40:30;;;;;;;17.08;2.10;;;;;;;12.18;100.00;101365.78;5029805;28;20072;-88
2022/10/04 01:43:14;;;;;;;9.88;2.63;;;;;;;12.15;100.00;101362.34;5008791;28;20041;-90
2022/10/04 01:45:50;;;;;;;14.45;2.42;;;;;;;12.15;100.00;101367.63;5033909;28;20116;-90
2022/10/04 01:48:24;;;;;;;19.25;2.40;;;;;;;12.12;100.00;101364.34;5029645;28;20041;-91
2022/10/04 01:51:09;;;;;;;14.75;2.28;;;;;;;12.14;100.00;101365.09;4994452;28;20053;-91
2022/10/04 01:53:49;;;;;;;15.93;2.70;;;;;;;12.12;100.00;101362.53;5029468;28;20049;-90
2022/10/04 01:56:23;;;;;;;17.40;2.55;;;;;;;12.11;100.00;101359.97;5017626;28;20056;-92
2022/10/04 01:59:02;;;;;;;11.38;2.53;;;;;;;12.11;100.00;101358.19;5018417;28;20033;-92
2022/10/04 02:01:53;;;;;;;15.52;2.60;;;;;;;12.10;100.00;101363.53;5017028;28;20041;-91
2022/10/04 02:04:32;;;;;;;19.15;2.58;;;;;;;12.06;100.00;101357.56;5047005;28;20033;-91
2022/10/04 02:07:18;;;;;;;10.70;2.60;;;;;;;12.02;100.00;101350.78;5039062;28;20045;-91
2022/10/04 02:09:53;;;;;;;15.70;3.05;;;;;;;12.02;100.00;101352.53;5009228;28;20057;-93
2022/10/04 02:12:24;;;;;;;19.40;3.28;;;;;;;12.07;100.00;101350.53;5022039;28;20059;-92
2022/10/04 02:14:55;;;;;;;14.38;3.38;;;;;;;12.09;100.00;101351.28;5002279;28;20042;-91
2022/10/04 02:17:51;;;;;;;18.45;2.90;;;;;;;12.05;100.00;101342.66;5008853;28;20048;-92
2022/10/04 02:20:29;;;;;;;12.00;2.60;;;;;;;12.10;100.00;101350.34;5012059;28;20052;-92
2022/10/04 02:23:07;;;;;;;17.63;2.67;;;;;;;12.01;100.00;101351.69;5017639;28;20394;-91
2022/10/04 02:25:40;;;;;;;12.40;2.08;;;;;;;12.01;100.00;101343.78;5004080;28;20056;-91
2022/10/04 02:28:20;;;;;;;12.93;2.42;;;;;;;12.02;100.00;101347.25;5024330;28;20057;-91
2022/10/04 02:33:49;;;;;;;12.50;2.85;;;;;;;11.86;100.00;101350.72;5024981;28;20077;-90
2022/10/04 02:36:23;;;;;;;12.90;2.97;;;;;;;11.82;100.00;101346.53;5022365;28;20057;-89
2022/10/04 02:39:47;;;;;;;14.82;2.42;;;;;;;11.80;100.00;101345.75;5022934;28;20200;-89
2022/10/04 02:42:23;;;;;;;16.05;2.88;;;;;;;11.82;100.00;101338.63;4969661;28;20042;-92
2022/10/04 02:45:18;;;;;;;16.75;2.72;;;;;;;11.75;100.00;101341.63;5019563;28;20030;-91
2022/10/04 02:48:00;;;;;;;9.40;2.47;;;;;;;11.72;100.00;101340.00;5053019;28;20041;-92
2022/10/04 02:50:39;;;;;;;11.32;2.30;;;;;;;11.79;100.00;101343.16;5022415;28;20046;-91
2022/10/04 02:53:36;;;;;;;13.88;2.30;;;;;;;11.80;100.00;101343.09;5044964;28;20052;-91
2022/10/04 02:56:08;;;;;;;14.30;2.55;;;;;;;11.78;100.00;101338.84;5034745;28;20045;-91
2022/10/04 02:58:39;;;;;;;9.48;2.13;;;;;;;11.76;100.00;101340.72;5009820;28;20052;-92
2022/10/04 03:01:16;;;;;;;11.40;2.42;;;;;;;11.75;100.00;101336.34;5015546;28;20037;-92
2022/10/04 03:03:46;;;;;;;14.88;2.15;;;;;;;11.73;100.00;101336.44;5013827;28;20065;-91
2022/10/04 03:06:19;;;;;;;12.77;2.55;;;;;;;11.73;100.00;101333.81;5017621;28;20068;-90
2022/10/04 03:08:57;;;;;;;12.30;2.17;;;;;;;11.73;100.00;101341.72;5012277;28;20054;-90
2022/10/04 03:11:30;;;;;;;11.10;2.53;;;;;;;11.69;100.00;101342.81;5028424;28;20038;-91
2022/10/04 03:14:01;;;;;;;13.73;3.00;;;;;;;11.65;100.00;101341.25;5035480;28;20372;-91
2022/10/04 03:16:43;;;;;;;18.50;2.75;;;;;;;11.59;100.00;101344.22;5021088;28;20477;-90
2022/10/04 03:19:16;;;;;;;17.35;2.60;;;;;;;11.53;100.00;101342.75;5021727;28;20038;-92
2022/10/04 03:21:50;;;;;;;;;;;;;;;11.54;100.00;101343.59;5026758;28;20093;-92
2022/10/04 03:24:26;;;;;;;10.15;1.88;;;;;;;11.50;100.00;101342.06;5022864;28;19956;-91
2022/10/04 03:26:56;;;;;;;14.35;2.45;;;;;;;11.48;100.00;101344.75;5023542;28;20030;-92
2022/10/04 03:29:29;;;;;;;13.65;3.53;;;;;;;11.48;100.00;101352.66;5029360;28;20079;-92
2022/10/04 03:31:57;;;;;;;9.18;2.40;;;;;;;11.48;100.00;101357.94;5027236;28;20140;-91
2022/10/04 03:34:32;;;;;;;12.90;3.22;;;;;;;11.46;100.00;101348.41;5019869;28;20064;-91
2022/10/04 03:37:00;;;;;;;17.80;2.65;;;;;;;11.41;100.00;101353.91;5042678;28;20034;-92
2022/10/04 03:39:32;;;;;;;15.90;2.35;;;;;;;11.37;100.00;101347.94;5038372;28;20025;-92
2022/10/04 03:42:18;;;;;;;18.38;2.90;;;;;;;11.33;100.00;101350.81;5020265;28;20029;-92
2022/10/04 03:44:49;;;;;;;10.85;2.05;;;;;;;11.35;100.00;101349.81;5019697;28;20028;-94
2022/10/04 03:47:26;;;;;;;15.88;2.17;;;;;;;11.34;100.00;101349.88;5025036;28;20160;-93
2022/10/04 03:49:58;;;;;;;16.23;2.92;;;;;;;11.32;100.00;101352.59;5024124;28;20101;-91
2022/10/04 03:52:33;;;;;;;19.27;3.05;;;;;;;11.31;100.00;101350.06;5031582;28;20148;-91
2022/10/04 03:55:02;;;;;;;17.85;2.67;;;;;;;11.27;100.00;101356.41;5023385;28;20026;-91
2022/10/04 03:57:30;;;;;;;13.85;2.80;;;;;;;11.30;100.00;101351.84;5025687;28;20436;-93
2022/10/04 03:59:58;;;;;;;18.27;2.65;;;;;;;11.25;100.00;101355.63;5023796;28;20076;-91
2022/10/04 04:02:38;;;;;;;16.15;2.58;;;;;;;11.22;100.00;101354.00;5039536;28;20029;-93
2022/10/04 04:05:28;;;;;;;18.17;3.05;;;;;;;11.21;100.00;101359.31;5035871;28;20049;-93
2022/10/04 04:08:11;;;;;;;19.08;2.85;;;;;;;11.23;100.00;101357.47;5025258;28;20275;-92
2022/10/04 04:10:47;;;;;;;9.68;2.40;;;;;;;11.24;100.00;101353.91;5019395;28;20060;-94
2022/10/04 04:13:30;;;;;;;19.83;2.63;;;;;;;11.21;100.00;101349.63;5047005;28;20043;-93
2022/10/04 04:16:00;;;;;;;17.05;2.97;;;;;;;11.21;100.00;101361.97;5029598;28;20056;-92
2022/10/04 04:18:32;;;;;;;14.27;2.72;;;;;;;11.20;100.00;101360.25;5027267;28;20044;-94
2022/10/04 04:21:01;;;;;;;11.90;2.60;;;;;;;11.20;100.00;101355.84;5025224;28;20029;-91
2022/10/04 04:23:37;;;;;;;15.75;3.13;;;;;;;11.18;100.00;101362.13;5034893;28;20045;-86
2022/10/04 04:26:18;;;;;;;13.30;2.67;;;;;;;11.16;100.00;101362.19;5044984;28;20105;-87
2022/10/04 04:29:02;;;;;;;14.32;2.45;;;;;;;11.10;100.00;101360.72;5031465;28;20041;-88
2022/10/04 04:31:36;;;;;;;18.13;3.72;;;;;;;11.07;100.00;101360.00;5029018;28;20080;-86
2022/10/04 04:34:15;;;;;;;17.02;2.85;;;;;;;11.01;100.00;101358.53;5024040;28;20045;-87
2022/10/04 04:36:49;;;;;;;16.13;2.95;;;;;;;10.99;100.00;101360.41;5024562;28;20054;-91
2022/10/04 04:39:38;;;;;;;14.60;3.63;;;;;;;11.01;100.00;101361.16;5040089;28;20049;-90
2022/10/04 04:42:09;;;;;;;13.20;2.88;;;;;;;11.04;100.00;101358.41;5004279;28;20066;-89
2022/10/04 04:45:04;;;;;;;12.90;2.22;;;;;;;11.01;100.00;101365.59;5032386;28;20381;-84
2022/10/04 04:47:44;;;;;;;19.73;2.88;;;;;;;10.95;100.00;101361.47;5026650;28;20103;-84
2022/10/04 04:50:18;;;;;;;13.90;2.60;;;;;;;10.98;100.00;101365.72;5020049;28;20344;-85
2022/10/04 04:52:57;;;;;;;13.43;2.50;;;;;;;10.94;100.00;101370.28;5018667;28;20037;-86
2022/10/04 04:55:32;;;;;;;17.80;2.85;;;;;;;10.95;100.00;101356.22;5017454;28;20045;-82
2022/10/04 04:58:26;;;;;;;20.35;3.10;;;;;;;10.97;100.00;101361.41;5030438;28;20076;-83
2022/10/04 05:01:05;;;;;;;13.85;2.97;;;;;;;11.03;100.00;101355.81;5036171;28;20041;-83
2022/10/04 05:03:33;;;;;;;13.80;2.90;;;;;;;10.97;100.00;101366.66;5020616;28;20548;-84
2022/10/04 05:06:03;;;;;;;15.20;3.10;;;;;;;10.98;100.00;101361.31;5036329;28;20042;-84
2022/10/04 05:08:32;;;;;;;12.60;2.72;;;;;;;10.93;100.00;101365.97;5016326;28;20423;-87
2022/10/04 05:11:07;;;;;;;13.23;2.75;;;;;;;10.88;100.00;101367.97;5006108;28;20053;-86
2022/10/04 05:13:44;;;;;;;14.77;2.88;;;;;;;10.85;100.00;101362.84;5034213;28;20042;-85
2022/10/04 05:16:15;;;;;;;22.25;3.67;;;;;;;10.85;100.00;101365.47;5046291;28;20145;-85
2022/10/04 05:18:46;;;;;;;13.48;2.50;;;;;;;10.87;100.00;101374.16;5014431;28;20049;-84
2022/10/04 05:21:30;;;;;;;21.02;3.22;;;;;;;10.83;100.00;101375.25;5034888;28;20063;-84
2022/10/04 05:24:23;;;;;;;17.90;3.20;;;;;;;10.88;100.00;101366.19;5029283;28;20041;-83
2022/10/04 05:26:56;;;;;;;18.67;3.30;;;;;;;10.90;100.00;101368.75;5024363;28;20056;-84
2022/10/04 05:29:26;;;;;;;14.25;2.92;;;;;;;10.89;100.00;101367.03;5036773;28;20058;-85
2022/10/04 05:31:56;;;;;;;13.93;2.72;;;;;;;10.88;100.00;101362.69;5004294;28;20072;-84
2022/10/04 05:34:30;;;;;;;13.25;3.60;;;;;;;10.87;100.00;101367.13;5037978;28;20057;-82
2022/10/04 05:37:29;;;;;;;18.38;3.60;;;;;;;10.88;100.00;101378.50;5047822;28;20475;-83
2022/10/04 05:40:12;;;;;;;11.32;2.78;;;;;;;10.95;100.00;101364.13;5017027;28;20512;-84
2022/10/04 05:42:45;;;;;;;12.50;2.67;;;;;;;10.99;100.00;101370.94;5019401;28;20064;-85
2022/10/04 05:45:22;;;;;;;19.20;3.33;;;;;;;10.98;100.00;101366.59;5022932;28;20060;-85
2022/10/04 05:47:51;;;;;;;19.92;2.67;;;;;;;11.03;100.00;101372.50;5034306;28;20088;-83
2022/10/04 05:50:25;;;;;;;10.90;2.75;;;;;;;11.06;100.00;101374.13;5039108;28;20128;-81
2022/10/04 05:52:52;;;;;;;12.60;3.17;;;;;;;11.11;100.00;101378.22;5023465;28;20049;-81
2022/10/04 05:55:36;;;;;;;14.00;2.60;;;;;;;11.10;100.00;101376.53;5030481;28;20100;-81
2022/10/04 05:58:25;;;;;;;16.65;3.47;;;;;;;11.14;100.00;101378.09;5007862;28;20441;-82
2022/10/04 06:01:15;;;;;;;15.25;3.92;;;;;;;11.17;100.00;101382.38;5031189;28;20041;-82
2022/10/04 06:04:04;;;;;;;16.23;2.85;;;;;;;11.24;100.00;101390.81;5026156;28;20080;-82
2022/10/04 06:06:41;;;;;;;14.38;2.55;;;;;;;11.38;100.00;101386.56;5032417;28;20053;-81
2022/10/04 06:09:32;;;;;;;11.77;2.70;;;;;;;11.37;100.00;101386.63;5028255;28;20480;-82
2022/10/04 06:12:13;;;;;;;11.70;3.22;;;;;;;11.42;100.00;101392.53;5036748;28;20057;-83
2022/10/04 06:14:50;;;;;;;11.52;2.25;;;;;;;11.48;100.00;101388.72;5018779;28;20465;-82
2022/10/04 06:17:29;;;;;;;14.57;2.72;;;;;;;11.56;100.00;101387.41;5050053;28;20096;-83
2022/10/04 06:20:18;;;;;;;12.57;3.00;;;;;;;11.56;100.00;101384.78;5035103;28;20057;-83
2022/10/04 06:22:47;;;;;;;18.52;3.03;;;;;;;11.60;100.00;101386.31;5032595;28;20555;-84
2022/10/04 06:25:54;;;;;;;13.60;2.88;;;;;;;11.66;100.00;101387.78;5029545;28;20049;-81
2022/10/04 06:28:35;;;;;;;12.73;3.20;;;;;;;11.84;100.00;101391.28;5029791;28;20136;-82
2022/10/04 06:31:05;;;;;;;14.13;3.28;;;;;;;11.86;100.00;101392.09;5020338;28;20046;-81
2022/10/04 06:33:45;;;;;;;14.65;3.33;;;;;;;11.82;100.00;101394.03;5026392;28;20045;-83
2022/10/04 06:36:41;;;;;;;14.43;5.35;;;;;;;11.87;100.00;101397.28;5032330;28;20445;-82
2022/10/04 06:39:38;;;;;;;18.80;3.20;;;;;;;11.84;100.00;101401.84;5030000;28;20504;-83
2022/10/04 06:42:12;;;;;;;18.52;3.13;;;;;;;11.91;100.00;101408.53;5018218;28;20467;-82
2022/10/04 06:44:59;;;;;;;10.60;2.28;;;;;;;11.86;100.00;101410.56;5035531;28;20490;-82
2022/10/04 06:47:46;;;;;;;14.02;2.95;;;;;;;11.93;100.00;101411.06;4998209;28;20045;-83
2022/10/04 06:50:36;;;;;;;14.98;3.08;;;;;;;11.93;100.00;101419.00;5022914;28;20069;-82
2022/10/04 06:53:41;;;;;;;12.30;2.90;;;;;;;11.88;100.00;101425.34;5017359;28;20563;-82
2022/10/04 06:56:42;;;;;;;15.90;3.60;;;;;;;11.89;100.00;101423.59;5030299;28;20051;-84
2022/10/04 06:59:38;;;;;;;17.65;3.42;;;;;;;11.86;100.00;101419.31;5017744;28;20045;-83
2022/10/04 07:02:17;;;;;;;12.52;3.13;;;;;;;11.88;100.00;101419.22;5031512;28;20052;-83
2022/10/04 07:04:54;;;;;;;13.48;2.97;;;;;;;12.02;100.00;101423.78;4997418;28;20079;-83
2022/10/04 07:07:36;;;;;;;12.27;2.38;;;;;;;11.95;100.00;101423.25;5025962;28;20041;-83
2022/10/04 07:10:07;;;;;;;7.30;2.20;;;;;;;11.98;100.00;101432.78;5012202;28;20064;-82
2022/10/04 07:12:39;;;;;;;12.63;3.15;;;;;;;11.93;100.00;101434.81;5012670;28;20052;-81
2022/10/04 07:15:16;;;;;;;9.65;2.20;;;;;;;11.99;100.00;101430.09;5041815;28;20052;-81
2022/10/04 07:17:48;;;;;;;13.90;2.63;;;;;;;11.97;100.00;101431.94;5019988;28;20069;-82
2022/10/04 07:20:22;;;;;;;12.40;2.85;;;;;;;12.05;100.00;101434.19;5030305;28;20119;-83
2022/10/04 07:22:56;;;;;;;16.27;3.80;;;;;;;12.02;100.00;101432.59;5009240;28;20132;-82
2022/10/04 07:25:51;;;;;;;12.32;3.17;;;;;;;12.16;100.00;101443.28;5025301;28;21127;-81
2022/10/04 07:31:26;;;;;;;14.95;3.17;;;;;;;12.17;100.00;101441.47;5008669;28;20663;-82
2022/10/04 07:33:58;;;;;;;12.02;2.63;;;;;;;12.19;100.00;101441.38;5026060;28;20377;-82
2022/10/04 07:36:44;;;;;;;10.35;3.60;;;;;;;12.28;100.00;101447.03;5031026;28;20048;-81
2022/10/04 07:39:13;;;;;;;;;;;;;;;12.27;100.00;101445.34;5038656;28;20057;-82
2022/10/04 07:42:00;;;;;;;13.63;2.75;;;;;;;12.26;100.00;101442.78;5009010;28;20374;-81
2022/10/04 07:44:40;;;;;;;9.50;2.80;;;;;;;12.25;100.00;101456.91;5013354;28;20042;-81
2022/10/04 07:47:23;;;;;;;19.80;3.75;;;;;;;12.24;100.00;101457.84;5024865;28;20049;-82
2022/10/04 07:49:52;;;;;;;10.38;2.83;;;;;;;12.27;100.00;101455.88;5006904;28;20059;-81
2022/10/04 07:52:23;;;;;;;16.40;3.92;;;;;;;12.39;100.00;101462.31;5037991;28;20057;-81
2022/10/04 07:55:32;;;;;;;10.68;3.25;;;;;;;12.46;100.00;101466.31;5003542;28;21384;-82
2022/10/04 07:58:33;;;;;;;11.43;3.80;;;;;;;12.43;100.00;101461.22;5014790;28;20080;-81
2022/10/04 08:01:08;;;;;;;10.90;3.20;;;;;;;12.30;100.00;101468.09;5008318;28;20067;-80
2022/10/04 08:04:13;;;;;;;9.37;3.20;;;;;;;12.28;100.00;101469.94;5009117;28;20152;-81
2022/10/04 08:06:55;;;;;;;10.35;4.00;;;;;;;12.27;100.00;101465.59;5024606;28;20495;-81
2022/10/04 08:09:35;;;;;;;10.52;3.88;;;;;;;12.29;100.00;101475.16;5039430;28;20035;-81
2022/10/04 08:12:17;;;;;;;13.75;3.97;;;;;;;12.28;100.00;101476.06;5024225;28;20042;-81
2022/10/04 08:15:12;;;;;;;14.95;3.78;;;;;;;12.42;100.00;101481.47;5016645;28;20045;-81
2022/10/04 08:17:54;;;;;;;15.85;3.72;;;;;;;12.47;100.00;101483.03;5014552;28;20051;-81
2022/10/04 08:20:35;;;;;;;16.27;4.45;;;;;;;12.42;100.00;101486.75;5026607;28;20569;-80
2022/10/04 08:23:42;;;;;;;16.50;3.55;;;;;;;12.43;100.00;101487.63;5028740;28;20532;-82
2022/10/04 08:26:12;;;;;;;;;;;;;;;12.48;100.00;101496.16;5027605;28;20087;-81
2022/10/04 08:32:05;;;;;;;15.68;4.15;;;;;;;12.66;100.00;101487.25;5016849;28;20045;-82
2022/10/04 08:35:00;;;;;;;16.42;4.22;;;;;;;12.74;100.00;101488.59;5026815;28;20052;-82
2022/10/04 08:37:34;;;;;;;8.63;3.35;;;;;;;12.80;99.94;101498.88;5027861;28;20076;-81
2022/10/04 08:40:44;;;;;;;10.75;3.80;;;;;;;12.91;98.04;101493.84;5030354;28;20615;-81
2022/10/04 08:43:41;;;;;;;10.43;3.72;;;;;;;12.86;97.67;101488.81;5009378;28;20073;-81
2022/10/04 08:46:11;;;;;;;8.35;3.70;;;;;;;12.83;97.49;101490.75;5010961;28;20512;-82
2022/10/04 08:49:15;;;;;;;11.57;4.63;;;;;;;12.89;98.33;101496.56;5024689;28;20061;-82
2022/10/04 08:52:18;;;;;;;11.40;3.95;;;;;;;12.96;97.69;101498.88;5016129;28;20045;-81
2022/10/04 08:55:01;;;;;;;8.15;3.15;;;;;;;13.03;97.88;101494.97;5048843;28;20522;-82
2022/10/04 08:57:37;;;;;;;10.48;4.05;;;;;;;13.12;97.43;101495.31;5026545;28;20057;-82
2022/10/04 09:00:31;;;;;;;15.57;5.00;;;;;;;13.15;97.54;101491.66;5021762;28;20445;-82
2022/10/04 09:03:38;;;;;;;13.60;4.68;;;;;;;13.27;96.58;101490.97;5030307;28;20603;-82
2022/10/04 09:06:29;;;;;;;11.90;4.40;;;;;;;13.35;95.22;101490.53;5023114;28;20049;-81
2022/10/04 09:09:21;;;;;;;7.88;3.92;;;;;;;13.39;94.72;101489.44;5027850;28;20520;-82
2022/10/04 09:12:08;;;;;;;8.18;3.72;;;;;;;13.43;93.65;101486.53;5044504;28;20492;-81
2022/10/04 09:15:13;;;;;;;13.82;4.30;;;;;;;13.55;93.26;101484.09;4996100;28;20041;-81
2022/10/04 09:18:29;;;;;;;12.25;3.80;;;;;;;13.66;92.15;101487.84;5026562;28;20046;-81
2022/10/04 09:21:07;;;;;;;7.50;3.42;;;;;;;13.73;91.03;101484.84;4958746;28;20063;-81
2022/10/04 09:23:54;;;;;;;10.32;3.38;;;;;;;13.71;88.86;101484.09;5017773;28;20034;-82
2022/10/04 09:26:42;;;;;;;13.10;4.50;;;;;;;13.83;89.26;101489.50;5027281;28;20053;-81
2022/10/04 09:29:31;;;;;;;11.25;4.10;;;;;;;14.00;89.16;101483.19;5030582;28;20060;-81
2022/10/04 09:32:17;;;;;;;9.27;3.60;;;;;;;14.13;88.35;101486.81;5022265;28;20046;-81
2022/10/04 09:34:54;;;;;;;9.75;3.33;;;;;;;14.28;88.55;101493.00;5012681;28;20107;-82
2022/10/04 09:37:29;;;;;;;8.82;2.95;;;;;;;14.29;85.92;101496.50;5034180;28;20053;-82
2022/10/04 09:39:58;;;;;;;13.70;2.95;;;;;;;14.29;85.95;101492.06;5006562;28;20065;-81
2022/10/04 09:42:56;;;;;;;7.90;3.20;;;;;;;14.37;85.32;101495.09;5048014;28;20052;-81
2022/10/04 09:45:51;;;;;;;7.22;2.60;;;;;;;14.29;84.19;101501.81;5036642;28;20152;-82
2022/10/04 09:48:26;;;;;;;12.15;3.42;;;;;;;14.27;84.57;101493.94;5029259;28;20087;-81
2022/10/04 09:51:14;;;;;;;5.68;2.60;;;;;;;14.31;85.53;101494.59;5015495;28;20087;-83
2022/10/04 09:54:14;;;;;;;6.40;2.70;;;;;;;14.36;84.90;101488.09;5036098;28;20076;-82
2022/10/04 09:57:00;;;;;;;13.20;2.90;;;;;;;14.38;84.13;101490.66;5025847;28;20132;-82
2022/10/04 09:59:35;;;;;;;9.98;2.80;;;;;;;14.39;85.29;101484.41;5019730;28;20111;-81
2022/10/04 10:02:43;;;;;;;6.93;2.75;;;;;;;14.53;85.91;101484.44;5028631;28;20136;-81
2022/10/04 10:05:29;;;;;;;7.85;2.78;;;;;;;14.73;85.17;101490.31;4990193;28;20045;-81
2022/10/04 10:08:18;;;;;;;;;;;;;;;14.79;83.25;101477.50;5007493;28;20049;-81
2022/10/04 10:14:43;;;;;;;14.43;3.35;;;;;;;15.12;81.84;101481.59;5002593;28;20075;-82
2022/10/04 10:17:35;;;;;;;6.50;1.83;;;;;;;15.20;79.42;101484.63;5021497;28;20373;-82
2022/10/04 10:20:16;;;;;;;10.77;2.85;;;;;;;15.17;78.31;101487.47;4993654;28;20068;-82
2022/10/04 10:22:53;;;;;;;5.45;1.77;;;;;;;15.09;77.85;101487.97;5025071;28;20045;-82
2022/10/04 10:25:46;;;;;;;7.45;2.28;;;;;;;15.19;79.72;101480.28;5006166;28;20139;-83
2022/10/04 10:29:09;;;;;;;8.00;2.53;;;;;;;15.30;78.64;101490.19;5008835;28;20041;-83
2022/10/04 10:32:06;;;;;;;6.30;2.08;;;;;;;15.23;77.02;101484.44;4987242;28;20055;-83
2022/10/04 10:34:52;;;;;;;9.13;2.50;;;;;;;15.19;77.93;101489.06;5001991;28;20058;-83
2022/10/04 10:37:34;;;;;;;15.95;2.25;;;;;;;15.44;79.54;101495.44;5029446;28;20235;-83
2022/10/04 10:40:30;;;;;;;11.20;2.40;;;;;;;15.43;78.04;101497.25;5023614;28;20053;-82
2022/10/04 10:43:25;;;;;;;10.27;2.20;;;;;;;15.52;77.93;101487.81;5004952;28;20045;-83
2022/10/04 10:46:08;;;;;;;8.15;2.10;;;;;;;15.55;77.67;101481.47;5023959;28;20112;-82
2022/10/04 10:48:50;;;;;;;8.02;3.05;;;;;;;15.60;78.48;101487.31;5019335;28;20385;-82
2022/10/04 10:51:35;;;;;;;8.00;2.35;;;;;;;15.76;77.70;101493.38;5003839;28;20057;-81
2022/10/04 10:54:24;;;;;;;11.05;3.20;;;;;;;15.87;76.30;101496.13;5024843;28;20065;-84
2022/10/04 10:56:56;;;;;;;10.30;2.78;;;;;;;15.81;76.37;101480.63;5004955;28;20400;-83
2022/10/04 10:59:36;;;;;;;11.35;2.70;;;;;;;15.98;76.79;101478.59;5026783;28;20389;-83
2022/10/04 11:02:22;;;;;;;10.20;2.67;;;;;;;15.94;76.16;101478.84;5037193;28;20124;-82
2022/10/04 11:05:35;;;;;;;15.20;3.55;;;;;;;15.91;76.12;101483.50;5026170;28;20066;-82
2022/10/04 11:08:14;;;;;;;13.85;3.22;;;;;;;15.80;76.43;101492.16;5029835;28;20096;-81
2022/10/04 11:10:54;;;;;;;6.40;3.03;;;;;;;15.83;77.18;101486.66;5023344;28;20211;-81
2022/10/04 11:13:58;;;;;;;8.35;2.20;;;;;;;15.88;76.11;101476.59;5008858;28;20061;-82
2022/10/04 11:16:26;;;;;;;11.38;3.35;;;;;;;16.02;76.37;101485.41;5008204;28;20072;-81
2022/10/04 11:19:14;;;;;;;15.10;3.65;;;;;;;16.25;75.31;101492.66;5026164;28;20058;-81
2022/10/04 11:22:06;;;;;;;11.07;2.65;;;;;;;16.33;74.08;101494.78;5019787;28;20410;-81
2022/10/04 11:24:45;;;;;;;11.20;2.80;;;;;;;16.31;72.93;101488.75;5021918;28;20192;-82
2022/10/04 11:27:36;;;;;;;9.98;2.05;;;;;;;16.24;74.67;101482.16;5024171;28;20049;-83
2022/10/04 11:30:25;;;;;;;12.68;2.97;;;;;;;16.29;74.86;101480.03;5043874;28;20072;-81
2022/10/04 11:32:55;;;;;;;14.85;3.33;;;;;;;16.24;74.18;101474.19;5009893;28;20049;-82
2022/10/04 11:35:44;;;;;;;11.48;2.42;;;;;;;16.04;74.79;101464.94;5028957;28;20076;-82
2022/10/04 11:38:26;;;;;;;13.48;2.80;;;;;;;15.81;76.19;101470.00;5024432;28;20499;-82
2022/10/04 11:41:17;;;;;;;10.57;3.03;;;;;;;15.82;77.27;101470.84;5021905;28;20056;-82
2022/10/04 11:44:20;;;;;;;13.30;3.05;;;;;;;15.92;77.51;101474.56;5016384;28;20045;-82
2022/10/04 11:47:10;;;;;;;12.13;2.95;;;;;;;15.96;77.14;101470.75;5023470;28;20144;-82
2022/10/04 11:50:07;;;;;;;12.75;3.08;;;;;;;16.04;77.16;101465.78;5025842;28;20057;-82
2022/10/04 11:53:07;;;;;;;6.90;2.45;;;;;;;16.13;77.63;101459.84;5010255;28;20049;-83
2022/10/04 11:56:12;;;;;;;12.88;3.33;;;;;;;16.31;76.02;101456.88;4998616;28;20057;-82
2022/10/04 11:59:09;;;;;;;14.75;2.78;;;;;;;16.41;73.73;101457.91;5008541;28;20083;-84
2022/10/04 12:02:15;;;;;;;11.05;2.05;;;;;;;16.24;72.29;101453.78;5030768;28;20156;-82
2022/10/04 12:05:07;;;;;;;11.75;2.50;;;;;;;16.03;73.01;101460.56;5024709;28;20056;-81
2022/10/04 12:08:00;;;;;;;19.00;2.88;;;;;;;15.92;73.78;101454.19;5040242;28;20129;-82
2022/10/04 12:10:41;;;;;;;7.70;2.10;;;;;;;15.84;74.49;101460.97;5007851;28;20064;-80
2022/10/04 12:13:18;;;;;;;8.07;2.45;;;;;;;15.88;74.92;101451.84;5045191;28;20066;-82
2022/10/04 12:16:04;;;;;;;13.23;2.50;;;;;;;15.99;74.31;101459.09;5039300;28;20045;-81
2022/10/04 12:19:08;;;;;;;12.35;2.28;;;;;;;15.97;74.88;101463.63;5027040;28;20187;-82
2022/10/04 12:22:15;;;;;;;14.70;2.25;;;;;;;16.05;75.36;101445.38;5036558;28;20146;-83
2022/10/04 12:25:03;;;;;;;13.30;2.58;;;;;;;16.25;74.74;101442.19;5033607;28;20046;-82
2022/10/04 12:28:11;;;;;;;9.63;2.13;;;;;;;16.35;74.48;101434.44;5031176;28;20125;-83
2022/10/04 12:30:45;;;;;;;8.98;3.05;;;;;;;16.58;73.62;101430.16;5031705;28;20051;-81
2022/10/04 12:33:12;;;;;;;9.98;2.00;;;;;;;16.83;72.71;101438.06;5029280;28;20077;-82
2022/10/04 12:36:18;;;;;;;11.73;2.85;;;;;;;16.98;70.55;101437.94;5027027;28;20061;-81
2022/10/04 12:38:54;;;;;;;7.72;2.17;;;;;;;17.10;70.79;101445.84;5037132;28;20059;-81
2022/10/04 12:41:30;;;;;;;11.93;2.05;;;;;;;17.11;69.59;101450.25;5019387;28;20056;-82